Time;durP1;ratioP1;P1;durP2;ratioP2;P2;SDS_P1;SDS_P2;PMS_P1;PMS_P2;Temp;Humidity;BMP_temperature;BMP_pressure;BME280_temperature;BME280_humidity;BME280_pressure;Samples;Min_cycle;Max_cycle;Signal;HPM_P1;HPM_P2
2022/08/22 00:01:25;;;;;;;3.33;3.03;;;13.50;99.90;;;;;;5102623;28;20036;-84
2022/08/22 00:04:20;;;;;;;4.95;4.25;;;13.50;99.90;;;;;;5103275;28;20062;-85
2022/08/22 00:07:09;;;;;;;6.60;4.68;;;13.40;99.90;;;;;;5106520;28;20055;-84
2022/08/22 00:09:51;;;;;;;5.15;4.65;;;13.50;99.90;;;;;;5095698;28;20048;-84
2022/08/22 00:12:48;;;;;;;4.55;4.13;;;13.50;99.90;;;;;;5106862;28;20051;-84
2022/08/22 00:15:24;;;;;;;4.18;3.80;;;13.60;99.90;;;;;;5110307;28;20058;-85
2022/08/22 00:18:21;;;;;;;4.97;4.47;;;13.70;99.90;;;;;;5100389;28;20044;-84
2022/08/22 00:20:55;;;;;;;7.00;4.30;;;13.70;99.90;;;;;;5103215;28;20043;-84
2022/08/22 00:23:46;;;;;;;10.07;3.78;;;13.70;99.90;;;;;;5109169;28;20496;-83
2022/08/22 00:26:39;;;;;;;3.58;3.20;;;13.50;99.90;;;;;;5109216;28;20439;-84
2022/08/22 00:29:37;;;;;;;3.90;3.50;;;13.40;99.90;;;;;;5105473;28;20086;-84
2022/08/22 00:32:14;;;;;;;4.70;4.30;;;13.30;99.90;;;;;;5091193;28;20063;-84
2022/08/22 00:35:14;;;;;;;4.22;3.78;;;13.40;99.90;;;;;;5081881;28;20039;-85
2022/08/22 00:38:01;;;;;;;3.88;3.47;;;13.20;99.90;;;;;;5082305;28;20042;-84
2022/08/22 00:41:11;;;;;;;4.32;3.92;;;13.20;99.90;;;;;;5089023;28;20052;-84
2022/08/22 00:43:53;;;;;;;7.28;4.35;;;13.10;99.90;;;;;;5076244;28;20044;-83
2022/08/22 00:46:27;;;;;;;6.10;3.92;;;13.10;99.90;;;;;;5089007;28;20044;-86
2022/08/22 00:49:06;;;;;;;4.53;3.35;;;13.10;99.90;;;;;;5067090;28;20828;-86
2022/08/22 00:51:43;;;;;;;5.03;4.60;;;13.10;99.90;;;;;;5078555;28;20060;-86
2022/08/22 00:54:27;;;;;;;4.45;3.85;;;13.20;99.90;;;;;;5100161;28;20044;-87
2022/08/22 00:57:19;;;;;;;8.25;4.55;;;13.30;99.90;;;;;;5102451;28;20047;-86
2022/08/22 00:59:49;;;;;;;4.97;3.40;;;13.30;99.90;;;;;;5106594;28;20058;-86
2022/08/22 01:02:25;;;;;;;4.63;4.20;;;13.30;99.90;;;;;;5090187;28;20048;-86
2022/08/22 01:05:05;;;;;;;5.07;4.15;;;13.30;99.90;;;;;;5098038;28;20298;-86
2022/08/22 01:07:39;;;;;;;;;;;13.20;99.90;;;;;;5100938;28;20055;-86
2022/08/22 01:10:24;;;;;;;6.10;5.50;;;13.20;99.90;;;;;;5102794;28;19928;-87
2022/08/22 01:13:31;;;;;;;6.03;4.10;;;13.20;99.90;;;;;;5099426;28;20048;-84
2022/08/22 01:16:49;;;;;;;4.78;4.35;;;13.20;99.90;;;;;;5109700;28;20047;-86
2022/08/22 01:19:41;;;;;;;7.35;4.93;;;13.30;99.90;;;;;;5084113;28;20579;-86
2022/08/22 01:22:36;;;;;;;4.18;3.78;;;13.10;99.90;;;;;;5097846;28;20044;-86
2022/08/22 01:25:20;;;;;;;4.45;3.55;;;13.10;99.90;;;;;;5083803;28;20051;-84
2022/08/22 01:28:15;;;;;;;6.20;3.63;;;13.10;99.90;;;;;;5087610;28;20039;-84
2022/08/22 01:30:47;;;;;;;5.13;4.72;;;13.10;99.90;;;;;;5101409;28;20082;-84
2022/08/22 01:33:52;;;;;;;3.97;3.50;;;13.00;99.90;;;;;;5106102;28;20036;-84
2022/08/22 01:36:45;;;;;;;3.88;3.58;;;13.10;99.90;;;;;;5098710;28;20052;-84
2022/08/22 01:39:33;;;;;;;4.80;4.13;;;13.10;99.90;;;;;;5102622;28;20062;-84
2022/08/22 01:42:39;;;;;;;6.30;5.40;;;13.10;99.90;;;;;;5099525;28;20044;-84
2022/08/22 01:45:37;;;;;;;5.00;4.13;;;13.10;99.90;;;;;;5083115;28;20068;-82
2022/08/22 01:48:24;;;;;;;5.38;4.88;;;13.10;99.90;;;;;;5097723;28;20044;-83
2022/08/22 01:50:56;;;;;;;4.60;4.20;;;13.10;99.90;;;;;;5090995;28;20047;-83
2022/08/22 01:53:39;;;;;;;4.15;3.88;;;13.10;99.90;;;;;;5086681;28;20526;-82
2022/08/22 01:56:22;;;;;;;6.38;4.88;;;13.10;99.90;;;;;;5072654;27;20424;-81
2022/08/22 01:58:58;;;;;;;3.88;3.38;;;13.10;99.90;;;;;;5089834;28;20044;-82
2022/08/22 02:01:51;;;;;;;5.00;3.95;;;13.30;99.90;;;;;;5091382;28;20043;-83
2022/08/22 02:04:54;;;;;;;4.38;3.97;;;13.50;99.90;;;;;;5104863;28;20249;-83
2022/08/22 02:07:45;;;;;;;5.78;5.05;;;13.80;99.90;;;;;;5062101;28;20482;-83
2022/08/22 02:10:40;;;;;;;4.93;3.63;;;13.90;99.90;;;;;;5086020;28;20043;-82
2022/08/22 02:13:11;;;;;;;6.78;3.78;;;13.90;99.90;;;;;;5106488;28;20047;-83
2022/08/22 02:15:49;;;;;;;4.18;3.78;;;13.90;99.90;;;;;;5081923;28;20039;-83
2022/08/22 02:18:27;;;;;;;4.32;3.92;;;13.90;99.90;;;;;;5104933;28;20503;-83
2022/08/22 02:21:18;;;;;;;4.78;3.85;;;13.90;99.90;;;;;;5106758;28;20090;-86
2022/08/22 02:24:20;;;;;;;4.35;3.95;;;14.00;99.90;;;;;;5089514;28;20078;-82
2022/08/22 02:27:24;;;;;;;5.22;3.63;;;14.00;99.90;;;;;;5106642;28;20044;-83
2022/08/22 02:30:24;;;;;;;3.80;3.47;;;14.00;99.90;;;;;;5087567;28;20043;-83
2022/08/22 02:33:06;;;;;;;4.90;4.35;;;14.00;99.90;;;;;;5106047;28;20051;-82
2022/08/22 02:36:03;;;;;;;4.80;4.03;;;14.00;99.90;;;;;;5088435;28;20047;-83
2022/08/22 02:39:12;;;;;;;4.80;4.30;;;14.00;99.90;;;;;;5096676;28;20055;-83
2022/08/22 02:42:15;;;;;;;4.13;3.60;;;13.90;99.90;;;;;;5091322;28;20036;-82
2022/08/22 02:45:19;;;;;;;3.63;3.33;;;13.80;99.90;;;;;;5103247;28;20051;-82
2022/08/22 02:47:47;;;;;;;4.25;3.80;;;13.70;99.90;;;;;;5089794;28;20523;-83
2022/08/22 02:50:22;;;;;;;9.13;4.05;;;13.60;99.90;;;;;;5105021;28;20040;-81
2022/08/22 02:53:12;;;;;;;4.28;3.50;;;13.60;99.90;;;;;;5086645;28;20051;-81
2022/08/22 02:55:57;;;;;;;4.50;4.00;;;13.70;99.90;;;;;;5087998;28;20245;-82
2022/08/22 02:58:30;;;;;;;4.32;3.95;;;13.70;99.90;;;;;;5100708;28;20070;-81
2022/08/22 03:00:57;;;;;;;4.85;3.90;;;13.60;99.90;;;;;;5098684;28;20554;-81
2022/08/22 03:03:30;;;;;;;5.28;4.00;;;13.70;99.90;;;;;;5071414;28;20051;-81
2022/08/22 03:06:04;;;;;;;5.10;4.45;;;13.70;99.90;;;;;;5070182;28;20299;-82
2022/08/22 03:08:59;;;;;;;5.65;4.25;;;13.80;99.90;;;;;;5085933;28;20051;-81
2022/08/22 03:11:31;;;;;;;4.38;4.00;;;13.90;99.90;;;;;;5085614;28;20055;-81
2022/08/22 03:14:08;;;;;;;3.70;3.35;;;13.90;99.90;;;;;;5105056;28;20043;-81
2022/08/22 03:16:59;;;;;;;5.93;4.38;;;13.80;99.90;;;;;;5086925;28;20066;-82
2022/08/22 03:19:45;;;;;;;3.78;3.25;;;13.70;99.90;;;;;;5085314;28;20051;-81
2022/08/22 03:22:35;;;;;;;4.85;4.45;;;13.60;99.90;;;;;;5083743;28;20056;-82
2022/08/22 03:25:35;;;;;;;9.70;5.63;;;13.60;99.90;;;;;;5084607;28;20480;-82
2022/08/22 03:28:09;;;;;;;4.57;3.97;;;13.60;99.90;;;;;;5098001;28;20047;-82
2022/08/22 03:30:49;;;;;;;7.22;4.43;;;13.70;99.90;;;;;;5086847;28;20043;-81
2022/08/22 03:33:26;;;;;;;3.97;3.58;;;13.70;99.90;;;;;;5105056;28;20048;-83
2022/08/22 03:36:03;;;;;;;3.88;3.47;;;13.70;99.90;;;;;;5070423;28;20048;-81
2022/08/22 03:38:33;;;;;;;10.32;4.40;;;13.60;99.90;;;;;;5102138;28;20373;-81
2022/08/22 03:41:20;;;;;;;3.85;3.55;;;13.60;99.90;;;;;;5082639;28;20064;-81
2022/08/22 03:44:15;;;;;;;4.63;4.13;;;13.70;99.90;;;;;;5085269;28;20055;-81
2022/08/22 03:47:05;;;;;;;3.45;3.20;;;13.70;99.90;;;;;;5082551;28;20048;-83
2022/08/22 03:49:52;;;;;;;4.50;3.08;;;13.70;99.90;;;;;;5084394;28;20044;-82
2022/08/22 03:55:34;;;;;;;5.30;4.20;;;13.70;99.90;;;;;;5064942;28;20317;-82
2022/08/22 03:58:11;;;;;;;5.53;3.53;;;13.70;99.90;;;;;;5067814;28;20528;-82
2022/08/22 04:01:28;;;;;;;6.03;3.67;;;13.60;99.90;;;;;;5067205;28;20051;-82
2022/08/22 04:04:20;;;;;;;5.47;4.38;;;13.60;99.90;;;;;;5083438;28;20056;-81
2022/08/22 04:07:12;;;;;;;5.25;4.43;;;13.50;99.90;;;;;;5083089;28;20048;-82
2022/08/22 04:10:32;;;;;;;5.45;3.63;;;13.50;99.90;;;;;;5074396;28;20048;-82
2022/08/22 04:13:25;;;;;;;5.32;4.75;;;13.40;99.90;;;;;;5082825;28;20512;-81
2022/08/22 04:16:05;;;;;;;4.80;4.32;;;13.40;99.90;;;;;;5083355;28;20518;-82
2022/08/22 04:18:48;;;;;;;8.00;4.15;;;13.50;99.90;;;;;;5083350;28;20036;-82
2022/08/22 04:21:41;;;;;;;5.53;4.97;;;13.50;99.90;;;;;;5084389;28;20040;-82
2022/08/22 04:24:44;;;;;;;4.80;3.40;;;13.40;99.90;;;;;;5082318;28;20044;-82
2022/08/22 04:27:40;;;;;;;6.68;4.57;;;13.50;99.90;;;;;;5078387;28;20044;-83
2022/08/22 04:30:33;;;;;;;4.38;4.07;;;13.50;99.90;;;;;;5092127;28;20059;-83
2022/08/22 04:33:13;;;;;;;5.53;5.03;;;13.40;99.90;;;;;;5074350;28;20044;-82
2022/08/22 04:35:51;;;;;;;5.38;3.88;;;13.40;99.90;;;;;;5084804;28;20408;-82
2022/08/22 04:38:38;;;;;;;5.28;3.88;;;13.20;99.90;;;;;;5080602;28;20036;-82
2022/08/22 04:41:17;;;;;;;7.05;6.38;;;13.10;99.90;;;;;;5093365;28;20043;-82
2022/08/22 04:43:51;;;;;;;4.40;3.75;;;13.20;99.90;;;;;;5104807;28;20054;-82
2022/08/22 04:46:38;;;;;;;6.95;4.70;;;13.20;99.90;;;;;;5103705;28;20047;-82
2022/08/22 04:49:33;;;;;;;8.65;4.25;;;13.20;99.90;;;;;;5068145;28;20048;-81
2022/08/22 04:52:37;;;;;;;10.25;7.43;;;13.20;99.90;;;;;;5055852;28;20047;-82
2022/08/22 04:55:23;;;;;;;4.93;4.20;;;13.20;99.90;;;;;;5099139;28;20044;-83
2022/08/22 04:58:10;;;;;;;5.95;4.38;;;13.20;99.90;;;;;;5085351;28;20044;-83
2022/08/22 05:00:47;;;;;;;6.78;4.68;;;13.20;99.90;;;;;;5084174;28;20050;-83
2022/08/22 05:03:17;;;;;;;5.20;4.47;;;13.20;99.90;;;;;;5101192;28;20066;-84
2022/08/22 05:05:48;;;;;;;4.75;4.05;;;13.20;99.90;;;;;;5102401;28;20043;-85
2022/08/22 05:08:22;;;;;;;6.47;4.65;;;13.20;99.90;;;;;;5084404;28;20046;-85
2022/08/22 05:10:51;;;;;;;5.93;5.38;;;13.20;99.90;;;;;;5103777;28;20059;-87
2022/08/22 05:13:32;;;;;;;5.68;4.70;;;13.20;99.90;;;;;;5085358;28;20539;-87
2022/08/22 05:16:08;;;;;;;9.80;5.05;;;13.20;99.90;;;;;;5085367;28;20054;-87
2022/08/22 05:18:45;;;;;;;6.60;5.18;;;13.40;99.90;;;;;;5102428;28;20036;-87
2022/08/22 05:21:15;;;;;;;10.68;4.97;;;13.40;99.90;;;;;;5103533;28;20043;-87
2022/08/22 05:23:53;;;;;;;4.80;4.35;;;13.40;99.90;;;;;;5104442;28;20036;-88
2022/08/22 05:26:21;;;;;;;8.82;4.80;;;13.50;99.90;;;;;;5084588;28;20039;-87
2022/08/22 05:28:55;;;;;;;5.68;4.30;;;13.50;99.90;;;;;;5085120;28;20484;-87
2022/08/22 05:31:31;;;;;;;6.53;5.57;;;13.60;99.90;;;;;;5103748;28;20040;-88
2022/08/22 05:34:10;;;;;;;5.00;4.50;;;13.70;99.90;;;;;;5107115;28;20032;-87
2022/08/22 05:36:42;;;;;;;7.07;4.57;;;13.70;99.90;;;;;;5104588;28;20476;-88
2022/08/22 05:39:20;;;;;;;4.97;4.47;;;13.80;99.90;;;;;;5087441;28;20051;-88
2022/08/22 05:41:55;;;;;;;8.10;5.30;;;13.90;99.90;;;;;;5106991;28;20040;-88
2022/08/22 05:44:26;;;;;;;6.00;5.45;;;14.10;99.90;;;;;;5107848;28;20043;-88
2022/08/22 05:47:22;;;;;;;6.63;5.90;;;14.20;99.90;;;;;;5095381;28;20134;-83
2022/08/22 05:50:01;;;;;;;5.55;4.85;;;14.30;99.90;;;;;;5106772;28;20043;-88
2022/08/22 05:52:58;;;;;;;4.80;4.20;;;14.30;99.90;;;;;;5055672;28;20043;-85
2022/08/22 05:55:50;;;;;;;6.90;4.95;;;14.50;99.90;;;;;;5054126;28;20499;-85
2022/08/22 05:58:49;;;;;;;5.00;4.38;;;14.60;99.90;;;;;;5088298;28;20506;-87
2022/08/22 06:01:24;;;;;;;4.53;3.92;;;14.80;99.90;;;;;;5088338;28;20058;-87
2022/08/22 06:03:55;;;;;;;12.52;4.80;;;14.90;99.90;;;;;;5055556;28;20062;-85
2022/08/22 06:06:28;;;;;;;6.15;4.63;;;14.90;99.90;;;;;;5071325;28;20040;-83
2022/08/22 06:09:07;;;;;;;8.23;4.07;;;15.00;99.90;;;;;;5091720;28;20393;-85
2022/08/22 06:11:53;;;;;;;8.05;3.97;;;15.00;99.90;;;;;;5055872;28;20502;-85
2022/08/22 06:14:48;;;;;;;4.70;3.85;;;15.10;99.90;;;;;;5082422;28;20051;-84
2022/08/22 06:17:23;;;;;;;6.88;5.22;;;15.30;99.90;;;;;;5084622;28;20051;-85
2022/08/22 06:19:52;;;;;;;5.45;4.05;;;15.40;99.90;;;;;;5086405;28;20059;-84
2022/08/22 06:22:27;;;;;;;5.90;4.97;;;15.60;99.90;;;;;;5084997;28;20058;-85
2022/08/22 06:25:00;;;;;;;4.50;4.10;;;15.90;99.90;;;;;;5087715;28;20055;-85
2022/08/22 06:27:29;;;;;;;10.38;5.45;;;16.10;99.90;;;;;;5088179;28;20040;-85
2022/08/22 06:30:05;;;;;;;5.10;4.32;;;16.30;99.90;;;;;;5085690;28;20499;-86
2022/08/22 06:32:40;;;;;;;6.65;5.72;;;16.50;99.90;;;;;;5087820;28;20063;-86
2022/08/22 06:38:38;;;;;;;7.47;5.80;;;17.00;99.90;;;;;;5102141;28;20345;-84
2022/08/22 06:41:07;;;;;;;5.35;4.85;;;17.10;99.90;;;;;;5105440;28;20539;-84
2022/08/22 06:43:42;;;;;;;7.53;5.88;;;17.30;99.90;;;;;;5106876;28;20056;-84
2022/08/22 06:46:15;;;;;;;8.60;6.22;;;17.50;99.90;;;;;;5110929;28;20054;-83
2022/08/22 06:48:43;;;;;;;6.50;5.30;;;17.60;99.90;;;;;;5102374;28;20392;-81
2022/08/22 06:51:13;;;;;;;6.43;5.82;;;17.80;99.90;;;;;;5087894;28;20043;-82
2022/08/22 06:53:49;;;;;;;11.53;7.07;;;17.90;99.90;;;;;;5104301;28;20043;-83
2022/08/22 06:56:23;;;;;;;5.05;4.63;;;18.00;99.90;;;;;;5102743;28;20089;-82
2022/08/22 06:58:57;;;;;;;6.30;5.25;;;18.10;99.90;;;;;;5104951;28;20056;-81
2022/08/22 07:01:53;;;;;;;7.28;4.70;;;18.20;99.90;;;;;;5106886;28;20052;-85
2022/08/22 07:04:25;;;;;;;5.03;4.53;;;18.40;99.90;;;;;;5108979;28;20043;-82
2022/08/22 07:06:55;;;;;;;12.63;6.13;;;18.30;99.90;;;;;;5089861;28;20391;-83
2022/08/22 07:09:30;;;;;;;6.38;5.10;;;18.10;99.90;;;;;;5071541;28;20040;-84
2022/08/22 07:12:01;;;;;;;6.18;5.65;;;18.00;99.90;;;;;;5091914;28;20082;-86
2022/08/22 07:14:48;;;;;;;;;;;18.30;99.90;;;;;;5104804;28;20396;-88
2022/08/22 07:17:56;;;;;;;6.72;6.13;;;18.40;99.90;;;;;;5075947;28;19924;-85
2022/08/22 07:20:30;;;;;;;10.02;5.70;;;18.40;99.90;;;;;;5081870;28;20055;-85
2022/08/22 07:23:09;;;;;;;5.57;5.13;;;18.20;99.90;;;;;;5072522;28;20058;-85
2022/08/22 07:26:03;;;;;;;5.13;4.63;;;18.20;99.90;;;;;;5104417;28;20051;-86
2022/08/22 07:28:41;;;;;;;6.43;5.82;;;18.20;99.90;;;;;;5096721;28;20274;-84
2022/08/22 07:31:30;;;;;;;6.05;5.45;;;17.90;99.90;;;;;;5090961;28;20067;-89
2022/08/22 07:34:13;;;;;;;11.10;4.38;;;17.90;99.90;;;;;;5073758;28;20041;-90
2022/08/22 07:36:58;;;;;;;6.10;4.80;;;18.00;99.90;;;;;;5107076;28;20062;-90
2022/08/22 07:39:45;;;;;;;5.55;3.58;;;18.20;99.90;;;;;;5072778;28;20059;-89
2022/08/22 07:42:23;;;;;;;5.22;4.72;;;18.20;99.90;;;;;;5074991;28;20051;-88
2022/08/22 07:50:29;;;;;;;8.52;5.35;;;18.70;99.90;;;;;;5015165;28;20455;-87
2022/08/22 07:53:12;;;;;;;12.52;4.70;;;19.10;99.90;;;;;;5029963;28;20497;-89
2022/08/22 07:55:43;;;;;;;5.03;4.07;;;19.20;99.90;;;;;;5081978;28;20045;-89
2022/08/22 07:58:18;;;;;;;5.28;4.78;;;19.30;99.90;;;;;;5074059;28;20078;-86
2022/08/22 08:00:49;;;;;;;3.88;3.58;;;19.30;99.90;;;;;;5091581;28;20427;-88
2022/08/22 08:03:22;;;;;;;6.32;3.78;;;19.30;99.90;;;;;;5108846;28;20404;-87
2022/08/22 08:05:50;;;;;;;4.85;3.75;;;19.40;99.90;;;;;;5090437;28;20051;-82
2022/08/22 08:08:40;;;;;;;6.15;3.95;;;19.50;99.90;;;;;;5057504;28;20050;-80
2022/08/22 08:11:12;;;;;;;7.22;3.47;;;19.50;99.90;;;;;;5090728;28;20043;-79
2022/08/22 08:13:44;;;;;;;8.60;3.92;;;19.50;99.90;;;;;;5097167;28;20047;-85
2022/08/22 08:16:18;;;;;;;5.03;3.65;;;19.50;99.90;;;;;;5091818;28;20050;-85
2022/08/22 08:18:48;;;;;;;7.57;6.43;;;19.60;99.90;;;;;;5090387;28;20047;-85
2022/08/22 08:22:06;;;;;;;7.18;3.88;;;19.70;99.90;;;;;;5091104;28;20044;-85
2022/08/22 08:24:41;;;;;;;6.50;4.85;;;20.10;99.90;;;;;;5040949;28;20051;-81
2022/08/22 08:30:16;;;;;;;4.97;4.47;;;19.90;99.90;;;;;;5087752;28;20071;-80
2022/08/22 08:33:05;;;;;;;4.80;4.28;;;19.80;99.90;;;;;;5090033;28;20059;-80
2022/08/22 08:36:35;;;;;;;10.02;5.82;;;19.80;99.90;;;;;;5072854;28;20066;-80
2022/08/22 08:39:12;;;;;;;5.88;4.75;;;19.70;99.90;;;;;;5075581;28;20039;-81
2022/08/22 08:41:55;;;;;;;6.60;5.82;;;19.60;99.90;;;;;;5079721;28;20039;-81
2022/08/22 08:44:39;;;;;;;6.57;4.07;;;19.80;99.90;;;;;;5073247;28;20050;-80
2022/08/22 08:47:37;;;;;;;23.23;7.93;;;19.90;99.90;;;;;;5083366;28;20046;-80
2022/08/22 08:50:43;;;;;;;6.10;4.70;;;20.10;99.90;;;;;;5061392;28;20476;-80
2022/08/22 08:53:40;;;;;;;4.30;3.60;;;20.20;99.90;;;;;;5110660;28;20050;-80
2022/08/22 08:56:28;;;;;;;4.22;3.83;;;20.40;99.90;;;;;;5089625;28;20488;-79
2022/08/22 08:59:27;;;;;;;4.03;3.72;;;20.40;99.90;;;;;;5112591;28;20039;-80
2022/08/22 09:02:19;;;;;;;5.40;3.90;;;20.20;99.90;;;;;;5103927;28;20040;-80
2022/08/22 09:05:27;;;;;;;5.22;4.50;;;20.20;99.90;;;;;;5113883;28;20048;-80
2022/08/22 09:08:21;;;;;;;11.88;4.03;;;20.40;99.90;;;;;;5098067;28;20040;-79
2022/08/22 09:11:12;;;;;;;21.92;6.15;;;20.40;99.90;;;;;;5113000;28;20399;-79
2022/08/22 09:14:13;;;;;;;6.07;4.38;;;20.40;99.90;;;;;;5093201;28;20051;-80
2022/08/22 09:16:41;;;;;;;4.60;3.85;;;20.50;99.90;;;;;;5113134;28;20055;-79
2022/08/22 09:19:33;;;;;;;5.18;4.68;;;20.60;99.90;;;;;;5111765;28;20043;-79
2022/08/22 09:22:16;;;;;;;6.43;3.67;;;20.50;99.90;;;;;;5104353;28;20054;-78
2022/08/22 09:24:47;;;;;;;4.35;4.05;;;20.20;99.90;;;;;;5107048;28;20039;-79
2022/08/22 09:27:23;;;;;;;;;;;20.00;99.90;;;;;;5073205;28;20044;-79
2022/08/22 09:30:18;;;;;;;4.45;4.05;;;19.90;99.90;;;;;;5093000;28;19946;-78
2022/08/22 09:32:57;;;;;;;7.22;3.85;;;20.00;99.90;;;;;;5077953;28;20063;-79
2022/08/22 09:35:31;;;;;;;8.77;4.43;;;20.00;99.90;;;;;;5076930;28;20043;-78
2022/08/22 09:38:35;;;;;;;3.13;2.92;;;20.00;99.90;;;;;;5093423;28;20059;-79
2022/08/22 09:41:29;;;;;;;8.07;3.72;;;20.00;99.90;;;;;;5072299;28;20043;-80
2022/08/22 09:44:14;;;;;;;4.68;3.35;;;20.10;99.90;;;;;;5093694;28;20058;-78
2022/08/22 09:47:09;;;;;;;7.82;3.97;;;20.10;99.90;;;;;;5071826;28;20040;-80
2022/08/22 09:50:29;;;;;;;3.53;3.30;;;20.10;99.90;;;;;;5087750;28;20043;-80
2022/08/22 09:53:10;;;;;;;4.60;3.95;;;20.10;99.90;;;;;;5009305;28;20059;-79
2022/08/22 09:55:53;;;;;;;3.13;2.88;;;20.00;99.90;;;;;;5058030;28;20687;-80
2022/08/22 09:58:44;;;;;;;3.72;3.38;;;19.90;99.90;;;;;;5093176;28;20040;-80
2022/08/22 10:01:31;;;;;;;6.28;3.35;;;19.80;99.90;;;;;;5082097;28;20332;-82
2022/08/22 10:04:39;;;;;;;8.82;4.40;;;19.70;99.90;;;;;;5086796;28;20526;-81
2022/08/22 10:07:30;;;;;;;4.10;3.70;;;19.70;99.90;;;;;;5081442;28;20493;-81
2022/08/22 10:10:05;;;;;;;3.15;2.92;;;19.70;99.90;;;;;;5072491;28;20055;-80
2022/08/22 10:13:15;;;;;;;9.80;3.63;;;19.90;99.90;;;;;;5109369;28;20052;-81
2022/08/22 10:16:20;;;;;;;4.40;3.38;;;20.10;99.90;;;;;;5031012;28;20052;-83
2022/08/22 10:19:12;;;;;;;4.97;2.92;;;20.20;99.90;;;;;;5026141;28;20049;-81
2022/08/22 10:22:01;;;;;;;3.90;2.78;;;20.30;99.90;;;;;;5045793;28;20041;-80
2022/08/22 10:24:58;;;;;;;3.15;2.85;;;20.40;99.90;;;;;;5013777;28;20450;-80
2022/08/22 10:27:55;;;;;;;3.53;3.08;;;20.50;99.90;;;;;;4995378;28;20041;-82
2022/08/22 10:30:29;;;;;;;5.82;2.97;;;20.50;99.90;;;;;;4991106;28;20052;-81
2022/08/22 10:33:18;;;;;;;3.22;2.90;;;20.60;99.90;;;;;;4976510;28;20059;-81
2022/08/22 10:35:49;;;;;;;3.45;2.85;;;20.70;99.90;;;;;;5026953;28;20049;-81
2022/08/22 10:38:31;;;;;;;3.42;2.65;;;20.80;99.90;;;;;;5010240;28;20045;-81
2022/08/22 10:41:20;;;;;;;6.78;2.90;;;20.80;99.90;;;;;;4978060;28;20058;-80
2022/08/22 10:44:02;;;;;;;4.13;2.53;;;20.70;99.90;;;;;;5044101;28;20059;-82
2022/08/22 10:46:32;;;;;;;2.53;2.05;;;20.80;99.90;;;;;;5031373;28;20628;-81
2022/08/22 10:49:05;;;;;;;3.40;2.35;;;20.90;99.90;;;;;;5033939;28;20433;-81
2022/08/22 10:52:13;;;;;;;3.47;3.13;;;21.00;99.90;;;;;;5034840;28;20063;-82
2022/08/22 10:55:22;;;;;;;2.40;2.28;;;21.00;99.90;;;;;;5035042;28;20040;-82
2022/08/22 10:58:15;;;;;;;3.92;2.75;;;21.00;99.90;;;;;;5058784;28;20052;-88
2022/08/22 11:01:12;;;;;;;5.97;2.08;;;21.00;99.90;;;;;;5107917;28;20059;-85
2022/08/22 11:04:36;;;;;;;2.50;2.30;;;21.00;99.90;;;;;;5064301;28;20048;-84
2022/08/22 11:08:03;;;;;;;2.83;1.92;;;21.00;99.90;;;;;;5069187;28;20039;-87
2022/08/22 11:10:52;;;;;;;4.43;2.40;;;21.10;99.90;;;;;;4981480;28;20049;-88
2022/08/22 11:13:37;;;;;;;2.97;2.63;;;21.10;99.90;;;;;;5071316;28;20055;-86
2022/08/22 11:16:20;;;;;;;5.70;2.20;;;21.00;99.90;;;;;;5062677;28;20054;-86
2022/08/22 11:18:57;;;;;;;6.13;3.20;;;21.00;99.90;;;;;;5110405;28;20055;-85
2022/08/22 11:21:53;;;;;;;6.15;4.35;;;21.00;99.90;;;;;;5091465;28;20050;-85
2022/08/22 11:24:30;;;;;;;3.50;2.97;;;21.10;99.90;;;;;;5111532;28;20044;-84
2022/08/22 11:27:15;;;;;;;3.00;2.60;;;21.20;99.90;;;;;;5129531;27;20487;-85
2022/08/22 11:30:02;;;;;;;2.80;2.60;;;21.10;99.90;;;;;;5110569;27;20522;-85
2022/08/22 11:32:57;;;;;;;3.25;2.92;;;21.10;99.90;;;;;;5089448;28;20464;-86
2022/08/22 11:35:49;;;;;;;4.03;3.15;;;21.10;99.90;;;;;;5068375;28;20717;-85
2022/08/22 11:38:53;;;;;;;4.88;3.58;;;21.10;99.90;;;;;;5088403;28;20040;-83
2022/08/22 11:41:41;;;;;;;8.38;2.47;;;21.10;99.90;;;;;;5065267;28;20059;-84
2022/08/22 11:44:57;;;;;;;2.55;2.20;;;21.10;99.90;;;;;;5065561;28;20079;-83
2022/08/22 11:53:18;;;;;;;2.15;1.95;;;20.90;99.90;;;;;;5016967;28;20402;-86
2022/08/22 11:56:43;;;;;;;3.35;2.83;;;20.90;99.90;;;;;;4957940;28;20055;-84
2022/08/22 12:00:39;;;;;;;3.05;2.80;;;20.80;99.90;;;;;;4896465;29;20496;-84
2022/08/22 12:04:18;;;;;;;;;;;;;;;;;;;;;
2022/08/22 12:07:30;;;;;;;2.38;2.00;;;20.90;99.90;;;;;;4876094;29;20493;-86
2022/08/22 12:10:13;;;;;;;5.55;2.92;;;21.00;99.90;;;;;;4893399;29;20056;-85
2022/08/22 12:13:12;;;;;;;4.78;2.10;;;21.10;99.90;;;;;;4911009;29;20070;-88
2022/08/22 12:16:44;;;;;;;2.65;2.28;;;21.20;99.90;;;;;;4964464;28;20055;-85
2022/08/22 12:19:28;;;;;;;5.00;1.98;;;21.40;99.90;;;;;;5005746;28;20060;-85
2022/08/22 12:22:45;;;;;;;2.38;1.50;;;21.30;99.90;;;;;;5029127;28;20052;-84
2022/08/22 12:25:37;;;;;;;2.73;1.77;;;21.40;99.90;;;;;;5082060;28;20048;-84
2022/08/22 12:29:29;;;;;;;6.35;1.40;;;21.40;99.90;;;;;;5079528;28;20044;-86
2022/08/22 12:36:44;;;;;;;3.60;1.55;;;21.40;99.90;;;;;;5033755;28;20607;-84
2022/08/22 12:39:58;;;;;;;;;;;21.50;99.90;;;;;;5070791;28;20400;-84
2022/08/22 12:43:06;;;;;;;1.50;1.40;;;21.60;99.90;;;;;;5057491;28;19928;-85
2022/08/22 12:46:06;;;;;;;4.95;1.45;;;21.60;99.70;;;;;;5039925;28;20063;-87
2022/08/22 12:49:17;;;;;;;4.28;1.90;;;21.50;99.90;;;;;;5040825;28;20056;-87
2022/08/22 13:01:55;;;;;;;3.22;2.20;;;21.70;99.50;;;;;;5083468;28;20059;-86
2022/08/22 13:04:33;;;;;;;3.05;1.95;;;21.70;99.90;;;;;;5068570;28;20041;-86
2022/08/22 13:08:27;;;;;;;;;;;;;;;;;;;;;
2022/08/22 13:12:50;;;;;;;;;;;;;;;;;;;;;
2022/08/22 13:15:54;;;;;;;16.17;2.03;;;21.90;99.90;;;;;;5039221;28;20039;-86
2022/08/22 13:18:29;;;;;;;2.15;1.95;;;21.80;99.20;;;;;;5029522;28;20513;-86
2022/08/22 13:21:03;;;;;;;7.25;2.38;;;21.80;99.10;;;;;;5078352;28;20417;-85
2022/08/22 13:23:37;;;;;;;3.13;1.77;;;21.80;99.80;;;;;;5067731;28;20040;-85
2022/08/22 13:26:18;;;;;;;1.52;1.42;;;22.00;99.90;;;;;;5065605;28;20393;-85
2022/08/22 13:29:24;;;;;;;2.90;1.75;;;22.00;99.00;;;;;;5034422;28;20045;-83
2022/08/22 13:32:00;;;;;;;3.17;1.75;;;22.00;99.90;;;;;;5061842;28;20048;-85
2022/08/22 13:34:37;;;;;;;2.38;1.23;;;22.10;99.90;;;;;;5037934;28;20044;-86
2022/08/22 13:37:13;;;;;;;1.95;1.50;;;22.20;99.90;;;;;;5021653;28;20060;-85
2022/08/22 13:39:47;;;;;;;2.58;1.48;;;22.20;99.50;;;;;;5067873;28;20485;-84
2022/08/22 13:42:25;;;;;;;4.22;1.60;;;22.20;98.70;;;;;;5046458;28;20498;-84
2022/08/22 13:45:18;;;;;;;3.92;1.15;;;22.20;98.40;;;;;;5046193;28;20053;-86
2022/08/22 13:48:01;;;;;;;1.52;1.42;;;22.10;99.20;;;;;;5020902;28;20049;-84
2022/08/22 13:50:33;;;;;;;1.50;1.40;;;22.10;99.90;;;;;;5025172;28;20059;-86
2022/08/22 13:53:44;;;;;;;3.47;1.95;;;22.20;98.80;;;;;;5045245;28;20036;-85
2022/08/22 13:56:49;;;;;;;1.08;1.00;;;22.10;99.00;;;;;;5035438;28;20052;-84
2022/08/22 13:59:47;;;;;;;2.72;1.52;;;22.10;98.70;;;;;;5065959;28;20051;-84
2022/08/22 14:02:22;;;;;;;2.92;1.67;;;22.10;97.10;;;;;;5087810;28;20040;-86
2022/08/22 14:05:04;;;;;;;1.50;1.45;;;22.00;98.40;;;;;;5060775;28;20527;-84
2022/08/22 14:07:48;;;;;;;1.45;1.27;;;21.90;98.30;;;;;;5051178;28;20067;-86
2022/08/22 14:10:30;;;;;;;1.52;1.30;;;21.60;99.30;;;;;;5069356;28;20041;-87
2022/08/22 14:13:10;;;;;;;6.43;1.60;;;21.70;99.10;;;;;;5053987;28;20045;-86
2022/08/22 14:15:40;;;;;;;1.00;0.90;;;21.90;97.70;;;;;;5065765;28;20478;-85
2022/08/22 14:18:27;;;;;;;1.58;1.45;;;22.00;97.10;;;;;;5063266;28;20068;-87
2022/08/22 14:21:37;;;;;;;1.92;1.17;;;22.10;97.80;;;;;;5056126;28;20063;-83
2022/08/22 14:27:59;;;;;;;2.70;1.58;;;22.20;97.20;;;;;;5039578;28;20052;-83
2022/08/22 14:31:02;;;;;;;1.30;1.17;;;22.30;98.10;;;;;;5081945;28;20036;-84
2022/08/22 14:33:36;;;;;;;3.35;1.35;;;22.20;97.40;;;;;;5076348;28;20893;-85
2022/08/22 14:36:15;;;;;;;1.63;1.13;;;22.10;98.70;;;;;;5091341;28;20051;-81
2022/08/22 14:38:51;;;;;;;1.40;1.30;;;21.90;97.20;;;;;;5073859;28;20058;-81
2022/08/22 14:41:24;;;;;;;1.27;1.10;;;21.80;96.70;;;;;;5071355;28;20037;-81
2022/08/22 14:44:08;;;;;;;2.30;1.90;;;22.00;98.70;;;;;;5088290;28;20052;-82
2022/08/22 14:46:49;;;;;;;1.67;1.48;;;22.00;99.00;;;;;;5085681;28;20409;-84
2022/08/22 14:49:17;;;;;;;2.25;1.58;;;22.10;98.00;;;;;;5089169;28;20039;-83
2022/08/22 14:51:53;;;;;;;1.98;1.45;;;22.20;99.60;;;;;;5089487;28;20071;-84
2022/08/22 14:54:23;;;;;;;4.35;1.73;;;22.50;99.90;;;;;;5072931;28;20672;-84
2022/08/22 14:56:58;;;;;;;2.13;1.98;;;22.60;98.90;;;;;;5070390;28;20061;-83
2022/08/22 14:59:52;;;;;;;1.45;1.35;;;22.50;99.70;;;;;;5049859;28;20057;-84
2022/08/22 15:02:33;;;;;;;8.07;1.83;;;22.60;99.00;;;;;;5062240;28;20041;-82
2022/08/22 15:05:15;;;;;;;1.20;1.15;;;22.60;98.70;;;;;;5053835;28;20049;-81
2022/08/22 15:07:53;;;;;;;1.45;1.35;;;22.60;98.60;;;;;;5052354;28;20052;-81
2022/08/22 15:10:30;;;;;;;2.90;1.63;;;22.50;97.80;;;;;;5060393;28;20041;-80
2022/08/22 15:13:06;;;;;;;1.58;1.35;;;22.40;98.60;;;;;;5070862;28;20401;-81